createdAt,value
2018-12-25T00:00:36.547Z,98344.38
2018-12-25T00:03:28.516Z,98358.08
2018-12-25T00:06:12.252Z,98363.91
2018-12-25T00:09:04.675Z,98362.41
2018-12-25T00:11:48.784Z,98375.80
2018-12-25T00:14:39.817Z,98376.02
2018-12-25T00:17:23.532Z,98377.03
2018-12-25T00:20:14.555Z,98377.84
2018-12-25T00:22:57.977Z,98377.98
2018-12-25T00:25:48.925Z,98381.46
2018-12-25T00:28:32.801Z,98374.83
2018-12-25T00:31:23.819Z,98368.19
2018-12-25T00:34:07.224Z,98335.43
2018-12-25T00:36:51.013Z,98366.16
2018-12-25T00:39:41.962Z,98357.94
2018-12-25T00:42:25.505Z,98362.37
2018-12-25T00:44:57.507Z,98354.52
2018-12-25T00:47:41.110Z,98354.37
2018-12-25T00:50:32.052Z,98342.10
2018-12-25T00:53:15.817Z,98343.55
2018-12-25T00:56:06.763Z,98347.95
2018-12-25T00:58:50.201Z,98345.47
2018-12-25T01:01:41.219Z,98339.56
2018-12-25T01:04:25.094Z,98330.83
2018-12-25T01:07:16.111Z,98331.05
2018-12-25T01:09:59.913Z,98326.73
2018-12-25T01:12:50.853Z,98323.73
2018-12-25T01:15:35.432Z,98331.11
2018-12-25T01:18:07.359Z,98327.05
2018-12-25T01:20:39.108Z,98321.38
2018-12-25T01:23:10.882Z,98324.53
2018-12-25T01:25:42.686Z,98333.73
2018-12-25T01:28:14.422Z,98344.21
2018-12-25T01:30:46.255Z,98353.97
2018-12-25T01:33:18.075Z,98359.36
2018-12-25T01:35:50.207Z,98368.86
2018-12-25T01:38:22.332Z,98384.42
2018-12-25T01:40:54.072Z,98392.30
2018-12-25T01:43:25.810Z,98397.92
2018-12-25T01:45:57.571Z,98406.61
2018-12-25T01:48:29.422Z,98412.39
2018-12-25T01:51:01.236Z,98409.01
2018-12-25T01:53:33.060Z,98408.80
2018-12-25T01:56:04.877Z,98404.22
2018-12-25T01:58:36.605Z,98407.13
2018-12-25T02:01:08.503Z,98406.95
2018-12-25T02:03:40.243Z,98406.41
2018-12-25T02:06:12.270Z,98402.44
2018-12-25T02:08:44.122Z,98398.07
2018-12-25T02:11:15.955Z,98381.26
2018-12-25T02:13:48.058Z,98383.25
2018-12-25T02:16:19.801Z,98380.70
2018-12-25T02:18:51.613Z,98374.44
2018-12-25T02:21:23.394Z,98383.72
2018-12-25T02:23:55.129Z,98392.33
2018-12-25T02:26:26.901Z,98400.58
2018-12-25T02:28:58.789Z,98400.83
2018-12-25T02:31:30.616Z,98395.29
2018-12-25T02:34:02.452Z,98388.47
2018-12-25T02:36:34.534Z,98392.39
2018-12-25T02:39:08.708Z,98391.88
2018-12-25T02:41:40.493Z,98397.65
2018-12-25T02:44:12.224Z,98410.16
2018-12-25T02:46:44.291Z,98404.44
2018-12-25T02:49:18.324Z,98399.87
2018-12-25T02:51:49.489Z,98390.48
2018-12-25T02:54:21.651Z,98382.69
2018-12-25T02:56:53.448Z,98376.17
2018-12-25T02:59:25.456Z,98380.03
2018-12-25T03:01:57.485Z,98377.48
2018-12-25T03:04:29.220Z,98367.69
2018-12-25T03:07:01.350Z,98366.42
2018-12-25T03:09:33.089Z,98363.89
2018-12-25T03:12:04.904Z,98355.23
2018-12-25T03:14:37.038Z,98351.17
2018-12-25T03:17:10.016Z,98357.95
2018-12-25T03:19:41.740Z,98363.37
2018-12-25T03:22:13.472Z,98366.88
2018-12-25T03:24:45.205Z,98370.53
2018-12-25T03:27:16.940Z,98362.88
2018-12-25T03:29:48.662Z,98365.09
2018-12-25T03:32:20.773Z,98368.59
2018-12-25T03:34:52.485Z,98367.82
2018-12-25T03:37:25.990Z,98362.47
2018-12-25T03:39:58.153Z,98371.06
2018-12-25T03:42:29.893Z,98360.74
2018-12-25T03:45:01.616Z,98366.02
2018-12-25T03:47:33.686Z,98362.53
2018-12-25T03:50:10.833Z,98369.33
2018-12-25T03:52:40.133Z,98365.09
2018-12-25T03:55:11.934Z,98368.98
2018-12-25T03:57:43.686Z,98369.45
2018-12-25T04:00:15.427Z,98367.36
2018-12-25T04:02:47.162Z,98371.51
2018-12-25T04:05:18.908Z,98365.84
2018-12-25T04:07:50.651Z,98371.72
2018-12-25T04:10:22.650Z,98366.32
2018-12-25T04:12:54.416Z,98368.30
2018-12-25T04:15:26.147Z,98367.95
2018-12-25T04:17:57.906Z,98372.23
2018-12-25T04:20:29.638Z,98356.50
2018-12-25T04:23:01.376Z,98363.52
2018-12-25T04:25:33.115Z,98355.48
2018-12-25T04:28:04.861Z,98355.13
2018-12-25T04:30:36.606Z,98355.25
2018-12-25T04:33:08.346Z,98347.06
2018-12-25T04:35:40.094Z,98342.30
2018-12-25T04:38:11.842Z,98338.99
2018-12-25T04:40:43.575Z,98336.08
2018-12-25T04:43:15.331Z,98331.08
2018-12-25T04:45:47.063Z,98331.89
2018-12-25T04:48:18.804Z,98340.50
2018-12-25T04:50:50.837Z,98348.84
2018-12-25T04:53:22.778Z,98351.43
2018-12-25T04:55:54.494Z,98348.61
2018-12-25T04:58:26.568Z,98353.31
2018-12-25T05:00:58.381Z,98356.80
2018-12-25T05:03:30.124Z,98360.93
2018-12-25T05:06:02.122Z,98349.53
2018-12-25T05:08:33.871Z,98355.08
2018-12-25T05:11:05.754Z,98349.41
2018-12-25T05:13:37.542Z,98346.43
2018-12-25T05:16:10.263Z,98354.23
2018-12-25T05:18:41.985Z,98349.30
2018-12-25T05:21:13.725Z,98356.01
2018-12-25T05:23:45.476Z,98357.09
2018-12-25T05:26:17.220Z,98359.31
2018-12-25T05:28:49.289Z,98369.02
2018-12-25T05:31:21.047Z,98379.39
2018-12-25T05:33:52.886Z,98385.73
2018-12-25T05:36:24.640Z,98387.34
2018-12-25T05:38:56.378Z,98386.26
2018-12-25T05:41:28.108Z,98381.57
2018-12-25T05:43:59.956Z,98382.88
2018-12-25T05:46:31.796Z,98376.25
2018-12-25T05:49:03.534Z,98378.70
2018-12-25T05:51:35.568Z,98379.59
2018-12-25T05:54:07.326Z,98387.35
2018-12-25T05:56:39.042Z,98388.84
2018-12-25T05:59:10.784Z,98384.97
2018-12-25T06:01:42.525Z,98385.21
2018-12-25T06:04:14.267Z,98385.69
2018-12-25T06:06:45.998Z,98387.59
2018-12-25T06:09:17.746Z,98386.84
2018-12-25T06:11:49.490Z,98391.22
2018-12-25T06:14:21.262Z,98386.50
2018-12-25T06:16:53.062Z,98385.05
2018-12-25T06:19:25.263Z,98383.42
2018-12-25T06:21:56.990Z,98377.98
2018-12-25T06:24:28.743Z,98381.57
2018-12-25T06:27:00.481Z,98379.92
2018-12-25T06:29:32.231Z,98375.67
2018-12-25T06:32:03.965Z,98379.59
2018-12-25T06:34:35.750Z,98383.95
2018-12-25T06:37:07.507Z,98378.63
2018-12-25T06:39:39.336Z,98379.36
2018-12-25T06:42:11.138Z,98376.81
2018-12-25T06:44:42.981Z,98383.58
2018-12-25T06:47:14.999Z,98390.43
2018-12-25T06:49:46.756Z,98393.95
2018-12-25T06:52:20.516Z,98400.30
2018-12-25T06:54:51.947Z,98393.37
2018-12-25T06:57:23.780Z,98394.92
2018-12-25T06:59:55.526Z,98396.22
2018-12-25T07:02:27.260Z,98390.52
2018-12-25T07:04:59.009Z,98396.25
2018-12-25T07:07:30.758Z,98399.14
2018-12-25T07:10:02.572Z,98403.42
2018-12-25T07:12:34.317Z,98401.52
2018-12-25T07:15:06.316Z,98398.19
2018-12-25T07:17:57.267Z,98405.74
2018-12-25T07:20:40.703Z,98406.38
2018-12-25T07:23:31.646Z,98421.02
2018-12-25T07:26:15.752Z,98418.95
2018-12-25T07:29:06.711Z,98416.46
2018-12-25T07:31:50.642Z,98412.56
2018-12-25T07:34:42.155Z,98415.63
2018-12-25T07:37:26.055Z,98410.34
2018-12-25T07:40:16.995Z,98404.62
2018-12-25T07:43:00.876Z,98410.83
2018-12-25T07:45:51.929Z,98398.72
2018-12-25T07:48:35.456Z,98406.81
2018-12-25T07:51:20.796Z,98405.88
2018-12-25T07:54:11.362Z,98396.17
2018-12-25T07:56:54.835Z,98407.81
2018-12-25T07:59:45.783Z,98385.60
2018-12-25T08:02:27.846Z,98408.52
2018-12-25T08:05:18.967Z,98405.88
2018-12-25T08:08:02.294Z,98409.28
2018-12-25T08:10:53.246Z,98403.98
2018-12-25T08:13:36.796Z,98401.57
2018-12-25T08:16:28.036Z,98391.80
2018-12-25T08:19:12.126Z,98398.18
2018-12-25T08:21:55.599Z,98397.77
2018-12-25T08:24:46.824Z,98401.52
2018-12-25T08:27:30.726Z,98405.98
2018-12-25T08:30:21.687Z,98343.00
2018-12-25T08:33:05.495Z,98390.42
2018-12-25T08:35:49.185Z,98388.39
2018-12-25T08:38:40.144Z,98391.72
2018-12-25T08:41:23.627Z,98395.70
2018-12-25T08:44:14.574Z,98404.55
2018-12-25T08:47:02.582Z,98410.94
2018-12-25T08:49:50.693Z,98414.33
2018-12-25T08:52:34.019Z,98402.22
2018-12-25T08:55:25.073Z,98405.69
2018-12-25T08:58:07.177Z,98391.31
2018-12-25T09:00:58.189Z,98412.59
2018-12-25T09:03:42.271Z,98414.78
2018-12-25T09:06:33.204Z,98426.09
2018-12-25T09:09:17.266Z,98430.62
2018-12-25T09:12:08.470Z,98432.59
2018-12-25T09:14:51.975Z,98417.17
2018-12-25T09:17:42.938Z,98421.66
2018-12-25T09:20:26.284Z,98424.48
2018-12-25T09:23:17.577Z,98414.48
2018-12-25T09:26:01.314Z,98421.44
2018-12-25T09:28:52.268Z,98360.09
2018-12-25T09:31:36.287Z,98424.31
2018-12-25T09:34:20.014Z,98367.85
2018-12-25T09:37:03.790Z,98415.19
2018-12-25T09:39:54.746Z,98420.16
2018-12-25T09:42:38.556Z,98423.45
2018-12-25T09:45:29.500Z,98431.09
2018-12-25T09:48:13.492Z,98432.55
2018-12-25T09:50:57.514Z,98409.88
2018-12-25T09:53:40.990Z,98434.27
2018-12-25T09:56:31.927Z,98436.45
2018-12-25T09:59:15.516Z,98434.27
2018-12-25T10:02:07.422Z,98444.14
2018-12-25T10:04:51.269Z,98444.75
2018-12-25T10:07:42.280Z,98443.77
2018-12-25T10:10:25.970Z,98440.45
2018-12-25T10:13:09.398Z,98431.13
2018-12-25T10:15:53.263Z,98424.64
2018-12-25T10:18:44.454Z,98422.51
2018-12-25T10:21:28.914Z,98351.86
2018-12-25T10:24:19.864Z,98372.33
2018-12-25T10:27:03.714Z,98395.06
2018-12-25T10:29:47.454Z,98385.11
2018-12-25T10:32:38.406Z,98385.58
2018-12-25T10:35:22.208Z,98374.70
2018-12-25T10:38:13.391Z,98379.20
2018-12-25T10:40:57.526Z,98370.90
2018-12-25T10:43:48.468Z,98381.83
2018-12-25T10:46:32.607Z,98390.94
2018-12-25T10:49:23.574Z,98389.59
2018-12-25T10:52:11.537Z,98376.43
2018-12-25T10:55:00.203Z,98360.09
2018-12-25T10:57:43.758Z,98352.77
2018-12-25T11:00:41.687Z,98338.53
2018-12-25T11:03:25.729Z,98324.83
2018-12-25T11:06:09.143Z,98319.20
2018-12-25T11:09:00.117Z,98314.17
2018-12-25T11:11:43.789Z,98310.75
2018-12-25T11:14:34.738Z,98312.70
2018-12-25T11:17:18.511Z,98278.77
2018-12-25T11:20:11.537Z,98324.44
2018-12-25T11:23:03.938Z,98317.12
2018-12-25T11:25:54.888Z,98305.52
2018-12-25T11:28:39.952Z,98319.92
2018-12-25T11:31:31.374Z,98308.02
2018-12-25T11:34:14.684Z,98305.58
2018-12-25T11:36:58.345Z,98311.81
2018-12-25T11:39:49.694Z,98312.27
2018-12-25T11:42:43.718Z,98320.98
2018-12-25T11:45:36.818Z,98324.13
2018-12-25T11:48:39.408Z,98323.58
2018-12-25T11:51:30.348Z,98313.86
2018-12-25T11:54:14.256Z,98306.28
2018-12-25T11:57:05.272Z,98309.17
2018-12-25T11:59:36.983Z,98328.86
2018-12-25T12:02:28.911Z,98323.42
2018-12-25T12:05:13.029Z,98324.72
2018-12-25T12:08:04.269Z,98326.91
2018-12-25T12:10:47.746Z,98321.53
2018-12-25T12:13:38.704Z,98331.11
2018-12-25T12:16:41.375Z,98329.76
2018-12-25T12:19:32.328Z,98333.64
2018-12-25T12:22:15.640Z,98340.53
2018-12-25T12:25:06.797Z,98334.83
2018-12-25T12:27:50.741Z,98339.37
2018-12-25T12:30:41.671Z,98343.94
2018-12-25T12:33:25.922Z,98312.80
2018-12-25T12:36:09.713Z,98352.88
2018-12-25T12:39:00.639Z,98354.48
2018-12-25T12:41:43.899Z,98347.69
2018-12-25T12:44:27.571Z,98329.39
2018-12-25T12:47:11.039Z,98347.44
2018-12-25T12:50:01.977Z,98339.78
2018-12-25T12:52:46.026Z,98306.70
2018-12-25T12:55:36.955Z,98335.80
2018-12-25T12:58:21.182Z,98330.30
2018-12-25T13:01:12.359Z,98333.42
2018-12-25T13:03:56.050Z,98343.54
2018-12-25T13:06:48.265Z,98293.98
2018-12-25T13:09:32.269Z,98313.70
2018-12-25T13:12:23.209Z,98343.80
2018-12-25T13:15:07.157Z,98307.48
2018-12-25T13:17:39.157Z,98349.38
2018-12-25T13:20:10.892Z,98347.50
2018-12-25T13:22:42.605Z,98356.00
2018-12-25T13:25:14.340Z,98359.25
2018-12-25T13:27:46.061Z,98350.75
2018-12-25T13:30:17.829Z,98352.50
2018-12-25T13:32:49.568Z,98353.53
2018-12-25T13:35:21.330Z,98355.09
2018-12-25T13:37:53.049Z,98361.32
2018-12-25T13:40:24.952Z,98370.52
2018-12-25T13:42:56.674Z,98373.66
2018-12-25T13:45:28.402Z,98376.77
2018-12-25T13:48:00.111Z,98380.51
2018-12-25T13:50:31.834Z,98382.93
2018-12-25T13:53:03.682Z,98379.49
2018-12-25T13:55:35.475Z,98383.52
2018-12-25T13:58:07.195Z,98382.34
2018-12-25T14:00:38.927Z,98394.22
2018-12-25T14:03:10.681Z,98396.08
2018-12-25T14:05:42.400Z,98390.25
2018-12-25T14:08:14.114Z,98396.34
2018-12-25T14:10:45.845Z,98399.52
2018-12-25T14:13:17.596Z,98399.07
2018-12-25T14:15:49.325Z,98404.99
2018-12-25T14:18:21.365Z,98402.44
2018-12-25T14:20:53.108Z,98408.17
2018-12-25T14:23:24.847Z,98407.12
2018-12-25T14:25:56.580Z,98405.50
2018-12-25T14:28:28.296Z,98405.05
2018-12-25T14:31:00.029Z,98413.75
2018-12-25T14:33:32.030Z,98412.91
2018-12-25T14:36:03.800Z,98414.59
2018-12-25T14:38:35.521Z,98425.77
2018-12-25T14:41:09.358Z,98419.64
2018-12-25T14:43:40.670Z,98419.44
2018-12-25T14:46:12.386Z,98415.36
2018-12-25T14:48:44.095Z,98416.20
2018-12-25T14:51:15.882Z,98413.08
2018-12-25T14:53:47.589Z,98407.05
2018-12-25T14:56:19.402Z,98406.08
2018-12-25T14:58:51.136Z,98406.41
2018-12-25T15:01:23.012Z,98418.27
2018-12-25T15:03:54.814Z,98418.15
2018-12-25T15:06:26.550Z,98414.59
2018-12-25T15:08:58.270Z,98416.71
2018-12-25T15:11:30.015Z,98422.75
2018-12-25T15:14:02.772Z,98417.64
2018-12-25T15:16:34.492Z,98416.80
2018-12-25T15:19:06.299Z,98416.20
2018-12-25T15:21:38.029Z,98412.23
2018-12-25T15:24:09.804Z,98412.06
2018-12-25T15:26:41.597Z,98412.48
2018-12-25T15:29:13.351Z,98410.23
2018-12-25T15:31:45.074Z,98408.00
2018-12-25T15:34:16.816Z,98408.42
2018-12-25T15:36:48.551Z,98412.34
2018-12-25T15:39:20.318Z,98411.83
2018-12-25T15:41:52.053Z,98418.52
2018-12-25T15:44:24.154Z,98407.55
2018-12-25T15:46:55.961Z,98422.02
2018-12-25T15:49:27.688Z,98417.16
2018-12-25T15:51:59.463Z,98409.69
2018-12-25T15:54:31.184Z,98411.78
2018-12-25T15:57:04.672Z,98410.94
2018-12-25T15:59:36.386Z,98422.16
2018-12-25T16:02:08.128Z,98426.30
2018-12-25T16:04:39.930Z,98433.88
2018-12-25T16:07:11.865Z,98433.38
2018-12-25T16:09:43.980Z,98428.99
2018-12-25T16:12:15.724Z,98432.09
2018-12-25T16:14:47.523Z,98429.23
2018-12-25T16:17:19.254Z,98428.34
2018-12-25T16:19:50.974Z,98434.28
2018-12-25T16:22:23.096Z,98437.81
2018-12-25T16:24:54.850Z,98440.46
2018-12-25T16:27:26.635Z,98437.58
2018-12-25T16:29:58.371Z,98437.52
2018-12-25T16:32:30.097Z,98430.20
2018-12-25T16:35:01.850Z,98429.74
2018-12-25T16:37:33.617Z,98428.45
2018-12-25T16:40:06.503Z,98436.63
2018-12-25T16:42:38.312Z,98435.33
2018-12-25T16:45:10.111Z,98429.30
2018-12-25T16:47:41.876Z,98435.83
2018-12-25T16:50:13.606Z,98432.84
2018-12-25T16:52:46.834Z,98422.02
2018-12-25T16:55:18.809Z,98423.27
2018-12-25T16:57:50.597Z,98417.67
2018-12-25T17:00:22.349Z,98419.06
2018-12-25T17:02:54.088Z,98423.64
2018-12-25T17:05:26.140Z,98420.26
2018-12-25T17:07:57.884Z,98426.84
2018-12-25T17:10:29.940Z,98424.78
2018-12-25T17:13:01.961Z,98428.28
2018-12-25T17:15:33.684Z,98415.95
2018-12-25T17:18:05.432Z,98413.86
2018-12-25T17:20:37.262Z,98411.38
2018-12-25T17:23:10.072Z,98413.60
2018-12-25T17:25:42.123Z,98412.41
2018-12-25T17:28:13.854Z,98403.92
2018-12-25T17:30:45.627Z,98399.29
2018-12-25T17:33:17.380Z,98408.50
2018-12-25T17:35:49.126Z,98403.55
2018-12-25T17:38:20.891Z,98405.61
2018-12-25T17:40:52.600Z,98397.44
2018-12-25T17:43:24.417Z,98397.83
2018-12-25T17:45:57.232Z,98391.04
2018-12-25T17:48:28.975Z,98392.94
2018-12-25T17:51:00.724Z,98394.60
2018-12-25T17:53:32.552Z,98395.38
2018-12-25T17:56:04.291Z,98398.73
2018-12-25T17:58:36.034Z,98394.67
2018-12-25T18:01:07.760Z,98392.68
2018-12-25T18:03:39.509Z,98394.20
2018-12-25T18:06:11.308Z,98391.74
2018-12-25T18:08:43.111Z,98387.45
2018-12-25T18:11:14.935Z,98383.25
2018-12-25T18:13:47.033Z,98381.95
2018-12-25T18:16:18.766Z,98385.27
2018-12-25T18:18:51.159Z,98381.83
2018-12-25T18:21:22.934Z,98381.30
2018-12-25T18:23:54.669Z,98382.15
2018-12-25T18:26:26.912Z,98392.72
2018-12-25T18:28:58.619Z,98398.61
2018-12-25T18:31:31.600Z,98394.45
2018-12-25T18:34:03.354Z,98394.61
2018-12-25T18:36:35.115Z,98394.66
2018-12-25T18:39:08.316Z,98405.09
2018-12-25T18:41:40.062Z,98403.03
2018-12-25T18:44:11.869Z,98402.28
2018-12-25T18:46:43.609Z,98396.38
2018-12-25T18:49:15.387Z,98393.08
2018-12-25T18:51:47.113Z,98396.59
2018-12-25T18:54:18.855Z,98394.58
2018-12-25T18:56:50.657Z,98395.88
2018-12-25T18:59:22.459Z,98390.86
2018-12-25T19:01:54.208Z,98394.14
2018-12-25T19:04:26.906Z,98392.97
2018-12-25T19:06:58.792Z,98390.14
2018-12-25T19:09:30.572Z,98386.34
2018-12-25T19:12:02.302Z,98372.69
2018-12-25T19:14:34.120Z,98369.78
2018-12-25T19:17:25.087Z,98383.27
2018-12-25T19:20:16.264Z,98378.11
2018-12-25T19:23:07.214Z,98379.00
2018-12-25T19:25:50.975Z,98375.72
2018-12-25T19:28:41.924Z,98380.97
2018-12-25T19:31:25.344Z,98375.52
2018-12-25T19:34:16.297Z,98376.05
2018-12-25T19:37:00.051Z,98370.14
2018-12-25T19:39:43.433Z,98378.82
2018-12-25T19:42:34.397Z,98377.53
2018-12-25T19:45:19.670Z,98381.96
2018-12-25T19:48:10.723Z,98371.27
2018-12-25T19:50:54.769Z,98368.44
2018-12-25T19:53:45.791Z,98374.12
2018-12-25T19:56:29.279Z,98383.22
2018-12-25T19:59:13.268Z,98377.98
2018-12-25T20:02:04.516Z,98377.64
2018-12-25T20:05:07.693Z,98374.70
2018-12-25T20:08:37.149Z,98378.17
2018-12-25T20:11:40.694Z,98375.70
2018-12-25T20:15:10.125Z,98367.14
2018-12-25T20:21:57.630Z,98363.69
2018-12-25T20:25:00.949Z,98362.55
2018-12-25T20:32:24.997Z,98361.05
2018-12-25T20:35:16.327Z,98353.78
2018-12-25T20:38:18.983Z,98353.66
2018-12-25T20:41:25.476Z,98346.36
2018-12-25T20:44:54.880Z,98300.91
2018-12-25T20:48:02.407Z,98344.56
2018-12-25T20:51:05.040Z,98338.95
2018-12-25T20:54:08.465Z,98306.15
2018-12-25T20:57:17.673Z,98333.57
2018-12-25T21:00:47.076Z,98337.48
2018-12-25T21:03:42.194Z,98334.90
2018-12-25T21:06:36.221Z,98312.41
2018-12-25T21:10:05.813Z,98329.33
2018-12-25T21:13:11.331Z,98330.33
2018-12-25T21:20:13.754Z,98327.20
2018-12-25T21:23:16.783Z,98279.34
2018-12-25T21:26:46.191Z,98314.07
2018-12-25T21:29:30.361Z,98313.62
2018-12-25T21:32:22.402Z,98313.81
2018-12-25T21:35:08.136Z,98311.45
2018-12-25T21:37:51.943Z,98308.21
2018-12-25T21:40:36.144Z,98310.83
2018-12-25T21:43:19.664Z,98306.11
2018-12-25T21:46:02.874Z,98305.77
2018-12-25T21:51:56.380Z,98303.41
2018-12-25T21:54:47.469Z,98297.14
2018-12-25T21:57:31.503Z,98293.98
2018-12-25T22:00:24.310Z,98291.55
2018-12-25T22:03:07.892Z,98294.64
2018-12-25T22:05:58.852Z,98299.42
2018-12-25T22:08:42.294Z,98297.44
2018-12-25T22:11:26.204Z,98301.20
2018-12-25T22:14:17.140Z,98311.23
2018-12-25T22:17:00.971Z,98301.50
2018-12-25T22:19:51.918Z,98301.72
2018-12-25T22:22:35.363Z,98297.55
2018-12-25T22:25:27.250Z,98302.00
2018-12-25T22:28:20.297Z,98311.95
2018-12-25T22:31:11.838Z,98323.77
2018-12-25T22:33:55.844Z,98325.63
2018-12-25T22:36:39.658Z,98322.64
2018-12-25T22:39:22.937Z,98311.89
2018-12-25T22:42:06.386Z,98307.88
2018-12-25T22:44:38.184Z,98260.88
2018-12-25T22:47:21.667Z,98289.05
2018-12-25T22:50:12.589Z,98282.53
2018-12-25T22:52:54.751Z,98287.27
2018-12-25T22:55:45.691Z,98254.16
2018-12-25T22:58:29.729Z,98286.19
2018-12-25T23:01:20.988Z,98257.70
2018-12-25T23:04:04.481Z,98274.95
2018-12-25T23:06:55.426Z,98275.41
2018-12-25T23:09:38.992Z,98269.13
2018-12-25T23:12:29.947Z,98274.08
2018-12-25T23:15:13.501Z,98277.54
2018-12-25T23:17:57.683Z,98278.38
2018-12-25T23:20:48.699Z,98276.28
2018-12-25T23:23:32.427Z,98272.25
2018-12-25T23:26:24.100Z,98255.63
2018-12-25T23:29:07.446Z,98257.94
2018-12-25T23:31:58.387Z,98254.98
2018-12-25T23:34:41.794Z,98247.14
2018-12-25T23:37:25.260Z,98238.56
2018-12-25T23:40:16.221Z,98235.65
2018-12-25T23:43:00.352Z,98224.03
2018-12-25T23:45:44.218Z,98251.80
2018-12-25T23:48:28.315Z,98245.49
2018-12-25T23:51:19.262Z,98240.91
2018-12-25T23:54:03.192Z,98231.93
2018-12-25T23:56:54.144Z,98233.02
2018-12-25T23:59:38.045Z,98235.17
